Time;durP1;ratioP1;P1;durP2;ratioP2;P2;SDS_P1;SDS_P2;PMS_P1;PMS_P2;Temp;Humidity;BMP_temperature;BMP_pressure;BME280_temperature;BME280_humidity;BME280_pressure;Samples;Min_cycle;Max_cycle;Signal;HPM_P1;HPM_P2
2022/04/02 00:00:39;;;;;;;3.83;3.03;;;;;21.40;100127.00;;;;2078807;28;20205;-49
2022/04/02 00:01:40;;;;;;;3.20;2.90;;;;;21.40;100124.00;;;;2079119;28;20991;-49
2022/04/02 00:02:40;;;;;;;3.07;2.70;;;;;21.40;100127.00;;;;2078948;28;20213;-49
2022/04/02 00:03:41;;;;;;;3.97;3.40;;;;;21.40;100123.00;;;;2078746;28;20205;-49
2022/04/02 00:04:41;;;;;;;3.10;2.80;;;;;21.40;100130.00;;;;2078991;28;20218;-49
2022/04/02 00:05:41;;;;;;;2.80;2.47;;;;;21.40;100125.00;;;;2078059;28;20216;-49
2022/04/02 00:06:42;;;;;;;2.70;2.50;;;;;21.40;100125.00;;;;2078644;28;20237;-49
2022/04/02 00:07:42;;;;;;;3.67;2.80;;;;;21.40;100124.00;;;;2078809;28;20205;-50
2022/04/02 00:08:42;;;;;;;3.50;2.70;;;;;21.40;100131.00;;;;2073264;28;20214;-50
2022/04/02 00:09:43;;;;;;;2.73;2.53;;;;;21.40;100124.00;;;;2070821;28;20226;-50
2022/04/02 00:10:43;;;;;;;4.00;2.87;;;;;21.40;100123.00;;;;2070368;28;20281;-50
2022/04/02 00:11:45;;;;;;;3.33;2.50;;;;;21.40;100119.00;;;;2070805;28;20241;-49
2022/04/02 00:12:46;;;;;;;3.50;2.58;;;;;21.40;100123.00;;;;2070862;28;20292;-49
2022/04/02 00:13:46;;;;;;;3.93;2.43;;;;;21.40;100124.00;;;;2070585;28;20202;-50
2022/04/02 00:14:47;;;;;;;3.23;2.67;;;;;21.30;100124.00;;;;2070687;28;20249;-50
2022/04/02 00:15:47;;;;;;;5.10;3.33;;;;;21.30;100124.00;;;;2070045;28;20231;-50
2022/04/02 00:16:48;;;;;;;3.00;2.70;;;;;21.30;100133.00;;;;2070730;28;20609;-50
2022/04/02 00:17:48;;;;;;;2.80;2.43;;;;;21.30;100129.00;;;;2070610;28;20676;-49
2022/04/02 00:18:51;;;;;;;3.13;2.40;;;;;21.30;100128.00;;;;2069827;28;20873;-49
2022/04/02 00:19:54;;;;;;;2.85;2.63;;;;;21.30;100122.00;;;;2074779;28;20213;-50
2022/04/02 00:20:54;;;;;;;5.25;2.90;;;;;21.30;100128.00;;;;2078439;28;20708;-50
2022/04/02 00:21:54;;;;;;;3.47;2.40;;;;;21.30;100136.00;;;;2078845;28;20233;-50
2022/04/02 00:24:14;;;;;;;2.88;2.60;;;;;21.30;100136.00;;;;2078369;28;20217;-50
2022/04/02 00:25:15;;;;;;;2.30;2.13;;;;;21.30;100130.00;;;;2078664;28;20249;-50
2022/04/02 00:26:19;;;;;;;3.35;2.40;;;;;20.90;100137.00;;;;2078060;28;20217;-49
2022/04/02 00:27:19;;;;;;;3.95;2.65;;;;;21.30;100139.00;;;;2077749;28;20300;-50
2022/04/02 00:28:20;;;;;;;2.37;2.17;;;;;21.20;100140.00;;;;2078167;28;20209;-50
2022/04/02 00:29:21;;;;;;;2.30;2.10;;;;;21.20;100135.00;;;;2078063;28;20233;-50
2022/04/02 00:30:21;;;;;;;4.10;2.57;;;;;21.30;100133.00;;;;2077852;28;20526;-51
2022/04/02 00:31:21;;;;;;;2.23;2.03;;;;;21.30;100140.00;;;;2078337;28;20220;-49
2022/04/02 00:32:22;;;;;;;2.60;2.13;;;;;21.20;100133.00;;;;2077301;28;20209;-50
2022/04/02 00:33:22;;;;;;;2.47;2.27;;;;;21.20;100134.00;;;;2077437;28;20214;-50
2022/04/02 00:34:22;;;;;;;3.00;2.30;;;;;21.20;100146.00;;;;2078485;28;20364;-49
2022/04/02 00:35:23;;;;;;;3.27;2.27;;;;;21.20;100132.00;;;;2077600;28;20763;-50
2022/04/02 00:36:23;;;;;;;1.90;1.80;;;;;21.20;100141.00;;;;2078777;28;20228;-50
2022/04/02 00:37:23;;;;;;;2.03;1.83;;;;;21.20;100137.00;;;;2078671;28;20214;-50
2022/04/02 00:38:24;;;;;;;2.47;2.27;;;;;21.20;100136.00;;;;2078738;28;20213;-50
2022/04/02 00:39:24;;;;;;;3.60;2.53;;;;;21.20;100141.00;;;;2078159;28;20253;-50
2022/04/02 00:40:25;;;;;;;3.00;2.27;;;;;21.20;100142.00;;;;2078482;28;20251;-50
2022/04/02 00:41:25;;;;;;;3.00;2.40;;;;;21.20;100138.00;;;;2070061;28;20718;-50
2022/04/02 00:42:26;;;;;;;2.40;2.00;;;;;21.20;100145.00;;;;2069982;28;20233;-50
2022/04/02 00:43:28;;;;;;;2.60;2.37;;;;;21.20;100143.00;;;;2070478;28;20213;-50
2022/04/02 00:44:28;;;;;;;2.10;1.90;;;;;21.20;100149.00;;;;2070376;28;20632;-50
2022/04/02 00:45:28;;;;;;;2.50;2.20;;;;;21.20;100147.00;;;;2069858;28;20230;-50
2022/04/02 00:46:29;;;;;;;2.33;2.03;;;;;21.20;100146.00;;;;2070596;28;20222;-50
2022/04/02 00:47:29;;;;;;;2.63;2.13;;;;;21.20;100149.00;;;;2069409;28;20222;-50
2022/04/02 00:48:30;;;;;;;4.27;2.33;;;;;21.20;100153.00;;;;2070209;28;20225;-50
2022/04/02 00:49:30;;;;;;;1.90;1.70;;;;;21.20;100153.00;;;;2070362;28;20218;-50
2022/04/02 00:50:30;;;;;;;3.20;1.83;;;;;21.10;100147.00;;;;2070295;28;20216;-52
2022/04/02 00:51:31;;;;;;;2.20;2.00;;;;;21.20;100154.00;;;;2069934;28;20222;-50
2022/04/02 00:52:32;;;;;;;2.17;1.98;;;;;21.20;100147.00;;;;2061887;28;20253;-50
2022/04/02 00:53:36;;;;;;;2.53;1.80;;;;;21.20;100159.00;;;;2069845;28;20214;-50
2022/04/02 00:54:36;;;;;;;1.85;1.70;;;;;21.10;100157.00;;;;2069600;28;20217;-50
2022/04/02 00:55:37;;;;;;;2.10;1.87;;;;;21.20;100154.00;;;;2061009;28;20640;-50
2022/04/02 00:56:37;;;;;;;1.97;1.77;;;;;21.20;100155.00;;;;2069652;28;20217;-50
2022/04/02 00:57:38;;;;;;;2.87;1.90;;;;;21.10;100147.00;;;;2069657;28;20237;-50
2022/04/02 00:58:39;;;;;;;2.03;1.50;;;;;21.10;100162.00;;;;2070603;28;20217;-50
2022/04/02 00:59:39;;;;;;;2.10;1.70;;;;;21.10;100155.00;;;;2070480;28;20713;-50
2022/04/02 01:00:40;;;;;;;1.73;1.63;;;;;21.10;100149.00;;;;2070189;28;20292;-50
2022/04/02 01:01:43;;;;;;;3.88;2.00;;;;;21.10;100140.00;;;;2070376;28;20792;-49
2022/04/02 01:02:43;;;;;;;2.10;1.80;;;;;21.10;100153.00;;;;2069648;28;20221;-51
2022/04/02 01:03:43;;;;;;;2.57;1.90;;;;;21.10;100147.00;;;;2069777;28;20710;-50
2022/04/02 01:04:44;;;;;;;2.60;1.83;;;;;21.10;100140.00;;;;2070314;28;20917;-50
2022/04/02 01:05:44;;;;;;;2.33;1.60;;;;;21.10;100150.00;;;;2068618;28;20210;-50
2022/04/02 01:06:45;;;;;;;2.67;1.80;;;;;21.10;100155.00;;;;2069892;28;20218;-50
2022/04/02 01:07:46;;;;;;;2.57;1.60;;;;;21.10;100147.00;;;;2072029;28;20210;-50
2022/04/02 01:08:46;;;;;;;2.22;1.70;;;;;21.10;100146.00;;;;2072226;28;20225;-50
2022/04/02 01:09:47;;;;;;;1.90;1.70;;;;;21.10;100151.00;;;;2071232;28;20221;-50
2022/04/02 01:10:47;;;;;;;2.03;1.50;;;;;21.10;100148.00;;;;2071307;28;20627;-50
2022/04/02 01:11:48;;;;;;;1.67;1.47;;;;;21.10;100148.00;;;;2072066;28;20245;-50
2022/04/02 01:12:49;;;;;;;1.70;1.50;;;;;21.10;100146.00;;;;2072069;28;20706;-50
2022/04/02 01:13:49;;;;;;;2.07;1.80;;;;;21.10;100151.00;;;;2071936;28;20218;-50
2022/04/02 01:14:49;;;;;;;2.10;1.73;;;;;21.00;100151.00;;;;2071990;28;20222;-50
2022/04/02 01:15:50;;;;;;;2.00;1.60;;;;;21.10;100149.00;;;;2071558;28;20217;-50
2022/04/02 01:16:50;;;;;;;1.60;1.43;;;;;21.00;100159.00;;;;2072052;28;20225;-50
2022/04/02 01:17:50;;;;;;;2.30;1.60;;;;;21.10;100147.00;;;;2072224;28;20222;-50
2022/04/02 01:18:51;;;;;;;2.37;1.50;;;;;21.00;100148.00;;;;2071906;28;20309;-50
2022/04/02 01:19:51;;;;;;;1.83;1.63;;;;;21.00;100147.00;;;;2072072;28;20260;-50
2022/04/02 01:20:53;;;;;;;3.87;1.47;;;;;21.10;100147.00;;;;2071114;28;20210;-50
2022/04/02 01:21:54;;;;;;;2.03;1.83;;;;;21.00;100148.00;;;;2071493;28;20305;-49
2022/04/02 01:22:54;;;;;;;2.43;1.77;;;;;21.00;100148.00;;;;2072032;28;20686;-50
2022/04/02 01:23:55;;;;;;;1.83;1.63;;;;;21.00;100152.00;;;;2071955;28;20238;-50
2022/04/02 01:24:56;;;;;;;2.05;1.63;;;;;21.00;100151.00;;;;2070776;28;20797;-50
2022/04/02 01:25:59;;;;;;;1.77;1.47;;;;;21.00;100149.00;;;;2071372;28;20214;-50
2022/04/02 01:27:00;;;;;;;2.53;1.60;;;;;21.00;100144.00;;;;2071837;28;20222;-50
2022/04/02 01:28:00;;;;;;;1.77;1.63;;;;;21.00;100147.00;;;;2071653;28;20237;-50
2022/04/02 01:29:01;;;;;;;3.10;1.50;;;;;21.00;100147.00;;;;2071890;28;20214;-47
2022/04/02 01:30:01;;;;;;;1.63;1.30;;;;;21.00;100148.00;;;;2071986;28;20626;-47
2022/04/02 01:31:05;;;;;;;1.70;1.40;;;;;21.00;100144.00;;;;2071881;28;20297;-47
2022/04/02 01:32:06;;;;;;;1.20;1.10;;;;;21.00;100149.00;;;;2071961;28;20222;-48
2022/04/02 01:33:06;;;;;;;1.93;1.60;;;;;21.00;100147.00;;;;2071809;28;20222;-48
2022/04/02 01:34:06;;;;;;;2.27;1.50;;;;;21.00;100152.00;;;;2071865;28;20400;-48
2022/04/02 01:35:08;;;;;;;2.57;1.60;;;;;21.00;100151.00;;;;2071682;28;20241;-48
2022/04/02 01:36:09;;;;;;;1.90;1.40;;;;;21.00;100157.00;;;;2071551;28;20922;-47
2022/04/02 01:37:13;;;;;;;1.10;1.00;;;;;21.00;100147.00;;;;2071339;28;20213;-47
2022/04/02 01:38:13;;;;;;;1.65;1.30;;;;;21.00;100151.00;;;;2077056;28;20229;-49
2022/04/02 01:39:14;;;;;;;1.70;1.37;;;;;21.00;100162.00;;;;2080028;28;20267;-49
2022/04/02 01:40:15;;;;;;;2.97;1.30;;;;;21.00;100150.00;;;;2080222;28;20210;-49
2022/04/02 01:41:15;;;;;;;2.27;1.40;;;;;21.00;100159.00;;;;2079934;28;20228;-49
2022/04/02 01:42:20;;;;;;;1.83;1.57;;;;;20.90;100154.00;;;;2079965;28;20224;-49
2022/04/02 01:43:20;;;;;;;2.55;1.60;;;;;20.90;100158.00;;;;2079886;28;20264;-49
2022/04/02 01:44:21;;;;;;;3.07;1.50;;;;;20.90;100149.00;;;;2079813;28;20213;-49
2022/04/02 01:45:21;;;;;;;2.47;1.40;;;;;20.90;100151.00;;;;2079523;28;20747;-49
2022/04/02 01:46:21;;;;;;;2.80;1.43;;;;;20.90;100154.00;;;;2080014;28;20689;-49
2022/04/02 01:47:22;;;;;;;2.40;1.50;;;;;20.90;100149.00;;;;2079556;28;20272;-49
2022/04/02 01:48:23;;;;;;;1.73;1.47;;;;;20.90;100156.00;;;;2079889;28;20213;-49
2022/04/02 01:49:23;;;;;;;2.97;1.70;;;;;20.90;100160.00;;;;2079877;28;20221;-49
2022/04/02 01:50:23;;;;;;;2.50;1.67;;;;;20.90;100163.00;;;;2079715;28;20213;-49
2022/04/02 01:51:24;;;;;;;2.00;1.50;;;;;20.90;100169.00;;;;2079260;28;20221;-49
2022/04/02 01:52:24;;;;;;;1.70;1.30;;;;;20.90;100161.00;;;;2079540;28;20213;-49
2022/04/02 01:53:25;;;;;;;1.93;1.23;;;;;20.90;100155.00;;;;2078722;28;20217;-49
2022/04/02 01:54:25;;;;;;;2.20;1.47;;;;;20.90;100157.00;;;;2078809;28;20210;-49
2022/04/02 01:55:26;;;;;;;2.47;1.60;;;;;20.90;100160.00;;;;2078688;28;20221;-49
2022/04/02 01:56:26;;;;;;;1.30;1.20;;;;;20.90;100158.00;;;;2079371;28;20700;-49
2022/04/02 01:57:26;;;;;;;2.07;1.30;;;;;20.90;100165.00;;;;2079362;28;20221;-49
2022/04/02 01:58:27;;;;;;;2.90;1.40;;;;;20.90;100159.00;;;;2079193;28;20210;-49
2022/04/02 01:59:27;;;;;;;1.97;1.37;;;;;20.90;100166.00;;;;2079645;28;20213;-49
2022/04/02 02:00:28;;;;;;;3.10;1.50;;;;;20.90;100169.00;;;;2079506;28;20708;-49
2022/04/02 02:01:28;;;;;;;2.50;1.33;;;;;20.90;100165.00;;;;2079365;28;20291;-49
2022/04/02 02:02:28;;;;;;;1.70;1.50;;;;;20.90;100163.00;;;;2079079;28;20216;-48
2022/04/02 02:03:29;;;;;;;2.00;1.40;;;;;20.90;100162.00;;;;2079566;28;20235;-49
2022/04/02 02:04:30;;;;;;;1.57;1.17;;;;;20.90;100165.00;;;;2079186;28;20217;-49
2022/04/02 02:05:31;;;;;;;2.17;1.40;;;;;20.90;100171.00;;;;2078928;28;20225;-49
2022/04/02 02:06:33;;;;;;;1.43;1.17;;;;;20.90;100160.00;;;;2078488;28;20233;-49
2022/04/02 02:07:33;;;;;;;2.25;1.75;;;;;20.90;100170.00;;;;2071281;28;20241;-49
2022/04/02 02:08:34;;;;;;;1.90;1.30;;;;;20.90;100168.00;;;;2070978;28;20218;-49
2022/04/02 02:09:34;;;;;;;2.00;1.40;;;;;20.90;100168.00;;;;2071178;28;20211;-49
2022/04/02 02:10:35;;;;;;;1.80;1.27;;;;;20.90;100166.00;;;;2071470;28;20253;-49
2022/04/02 02:11:36;;;;;;;4.00;1.70;;;;;20.90;100160.00;;;;2072756;28;20296;-49
2022/04/02 02:12:37;;;;;;;2.45;1.55;;;;;20.90;100170.00;;;;2079028;28;20288;-49
2022/04/02 02:13:37;;;;;;;2.30;1.20;;;;;20.80;100160.00;;;;2079080;28;20214;-49
2022/04/02 02:14:38;;;;;;;1.60;1.27;;;;;20.80;100161.00;;;;2079376;28;20217;-48
2022/04/02 02:15:38;;;;;;;1.97;1.33;;;;;20.80;100163.00;;;;2078724;28;20209;-49
2022/04/02 02:16:38;;;;;;;1.70;1.13;;;;;20.80;100165.00;;;;2079326;28;20300;-49
2022/04/02 02:17:39;;;;;;;2.60;1.70;;;;;20.80;100163.00;;;;2079117;28;20233;-49
2022/04/02 02:18:39;;;;;;;1.30;1.20;;;;;20.80;100164.00;;;;2078049;28;20216;-49
2022/04/02 02:19:39;;;;;;;2.03;1.67;;;;;20.80;100165.00;;;;2077178;28;20235;-49
2022/04/02 02:20:40;;;;;;;1.43;1.20;;;;;20.80;100159.00;;;;2079628;28;20565;-49
2022/04/02 02:21:40;;;;;;;1.50;1.10;;;;;20.80;100164.00;;;;2079043;28;20248;-49
2022/04/02 02:22:41;;;;;;;1.50;1.20;;;;;20.80;100166.00;;;;2079292;28;20216;-49
2022/04/02 02:23:41;;;;;;;1.73;1.27;;;;;20.80;100169.00;;;;2078627;28;20213;-49
2022/04/02 02:24:42;;;;;;;1.77;1.10;;;;;20.80;100167.00;;;;2079128;28;20327;-49
2022/04/02 02:25:42;;;;;;;2.10;1.10;;;;;20.80;100168.00;;;;2078740;28;20379;-49
2022/04/02 02:26:42;;;;;;;1.83;1.10;;;;;20.80;100167.00;;;;2079239;28;20860;-49
2022/04/02 02:27:43;;;;;;;1.40;1.20;;;;;20.80;100165.00;;;;2078315;28;20279;-49
2022/04/02 02:28:43;;;;;;;1.60;1.30;;;;;20.80;100160.00;;;;2079090;28;20245;-49
2022/04/02 02:29:44;;;;;;;2.87;1.57;;;;;20.80;100169.00;;;;2079370;28;20218;-48
2022/04/02 02:30:44;;;;;;;1.53;1.37;;;;;20.80;100165.00;;;;2078613;28;20224;-49
2022/04/02 02:31:44;;;;;;;1.70;1.10;;;;;20.80;100169.00;;;;2078256;28;20270;-49
2022/04/02 02:32:45;;;;;;;1.57;1.17;;;;;20.80;100164.00;;;;2079023;28;20213;-49
2022/04/02 02:36:23;;;;;;;1.85;1.27;;;;;20.80;100168.00;;;;2079148;28;20205;-49
2022/04/02 02:37:24;;;;;;;1.43;1.17;;;;;20.80;100168.00;;;;2078660;28;20867;-49
2022/04/02 02:38:24;;;;;;;2.03;1.20;;;;;20.80;100168.00;;;;2078765;28;20629;-48
2022/04/02 02:39:25;;;;;;;1.77;1.30;;;;;20.70;100165.00;;;;2078927;28;20456;-53
2022/04/02 02:40:25;;;;;;;4.50;1.30;;;;;20.70;100165.00;;;;2078756;28;20212;-53
2022/04/02 02:41:25;;;;;;;1.83;1.20;;;;;20.70;100167.00;;;;2078824;28;20217;-52
2022/04/02 02:42:27;;;;;;;1.50;1.17;;;;;20.70;100162.00;;;;2079144;28;20214;-50
2022/04/02 02:43:27;;;;;;;3.08;1.15;;;;;20.80;100168.00;;;;2071965;28;20250;-49
2022/04/02 02:44:28;;;;;;;3.00;1.30;;;;;20.70;100169.00;;;;2078888;28;20217;-49
2022/04/02 02:45:28;;;;;;;1.93;1.30;;;;;20.70;100166.00;;;;2072610;28;20221;-49
2022/04/02 02:46:28;;;;;;;2.43;1.50;;;;;20.70;100175.00;;;;2078579;28;20236;-48
2022/04/02 02:47:29;;;;;;;3.20;1.10;;;;;20.70;100178.00;;;;2078187;28;20306;-48
2022/04/02 02:48:29;;;;;;;2.17;1.27;;;;;20.70;100176.00;;;;2078296;28;20267;-49
2022/04/02 02:49:30;;;;;;;1.57;1.17;;;;;20.70;100170.00;;;;2079038;28;20228;-49
2022/04/02 02:50:30;;;;;;;1.97;0.90;;;;;20.70;100169.00;;;;2077720;28;20867;-48
2022/04/02 02:51:30;;;;;;;2.63;1.53;;;;;20.70;100176.00;;;;2078529;28;20847;-49
2022/04/02 02:52:30;;;;;;;1.77;1.30;;;;;20.70;100179.00;;;;2078996;28;20569;-49
2022/04/02 02:53:31;;;;;;;1.50;0.93;;;;;20.70;100176.00;;;;2078095;28;20624;-48
2022/04/02 02:54:32;;;;;;;1.50;1.27;;;;;20.70;100175.00;;;;2077939;28;20657;-49
2022/04/02 02:55:32;;;;;;;2.60;1.07;;;;;20.70;100176.00;;;;2078162;28;20577;-49
2022/04/02 02:56:32;;;;;;;2.40;1.30;;;;;20.70;100175.00;;;;2078668;28;20449;-49
2022/04/02 02:57:40;;;;;;;1.30;0.97;;;;;20.70;100180.00;;;;2079445;28;20209;-49
2022/04/02 02:58:40;;;;;;;2.15;1.15;;;;;20.70;100178.00;;;;2079548;28;20209;-49
2022/04/02 02:59:40;;;;;;;1.63;1.17;;;;;20.70;100177.00;;;;2079545;28;20576;-49
2022/04/02 03:00:41;;;;;;;1.40;1.13;;;;;20.70;100181.00;;;;2079385;28;20263;-49
2022/04/02 03:01:42;;;;;;;1.73;1.00;;;;;20.60;100172.00;;;;2079394;28;20213;-49
2022/04/02 03:02:42;;;;;;;1.83;1.10;;;;;20.70;100175.00;;;;2079179;28;20213;-49
2022/04/02 03:03:42;;;;;;;1.20;1.07;;;;;20.70;100175.00;;;;2078744;28;20205;-49
2022/04/02 03:04:43;;;;;;;1.70;1.30;;;;;20.70;100166.00;;;;2075640;28;20217;-49
2022/04/02 03:05:44;;;;;;;1.17;1.00;;;;;20.60;100175.00;;;;2070796;28;20336;-49
2022/04/02 03:06:44;;;;;;;2.40;1.33;;;;;20.70;100114.00;;;;2071144;28;20213;-49
2022/04/02 03:07:50;;;;;;;1.63;1.20;;;;;20.60;100171.00;;;;2070975;28;20218;-49
2022/04/02 03:08:51;;;;;;;2.65;1.30;;;;;20.60;100181.00;;;;2070473;28;20536;-48
2022/04/02 03:09:51;;;;;;;1.70;1.07;;;;;20.70;100183.00;;;;2078311;28;20205;-48
2022/04/02 03:10:52;;;;;;;1.57;1.00;;;;;20.70;100168.00;;;;2079269;28;20292;-49
2022/04/02 03:11:52;;;;;;;1.90;1.20;;;;;20.60;100189.00;;;;2079357;28;20244;-48
2022/04/02 03:12:53;;;;;;;2.40;1.20;;;;;20.70;100180.00;;;;2079395;28;20681;-49
2022/04/02 03:13:54;;;;;;;1.70;1.20;;;;;20.60;100186.00;;;;2079227;28;20213;-48
2022/04/02 03:14:55;;;;;;;1.63;1.20;;;;;20.60;100187.00;;;;2078920;28;20296;-48
2022/04/02 03:15:55;;;;;;;1.70;1.20;;;;;20.60;100184.00;;;;2078934;28;21013;-48
2022/04/02 03:16:55;;;;;;;1.83;0.90;;;;;20.60;100178.00;;;;2079403;28;20217;-48
2022/04/02 03:18:02;;;;;;;1.90;1.53;;;;;20.60;100185.00;;;;2078700;28;20292;-48
2022/04/02 03:19:02;;;;;;;2.20;1.45;;;;;20.60;100184.00;;;;2078926;28;20298;-49
2022/04/02 03:20:04;;;;;;;1.27;1.00;;;;;20.60;100190.00;;;;2079431;28;20214;-49
2022/04/02 03:21:04;;;;;;;3.85;1.35;;;;;20.60;100186.00;;;;2078459;28;21066;-49
2022/04/02 03:22:04;;;;;;;1.70;1.10;;;;;20.60;100187.00;;;;2078394;28;20232;-49
2022/04/02 03:23:05;;;;;;;1.30;1.10;;;;;20.60;100182.00;;;;2079376;28;20221;-49
2022/04/02 03:24:05;;;;;;;1.30;1.03;;;;;20.60;100189.00;;;;2079283;28;20229;-48
2022/04/02 03:25:07;;;;;;;1.83;1.50;;;;;20.60;100183.00;;;;2079145;28;20232;-49
2022/04/02 03:26:07;;;;;;;3.50;1.38;;;;;20.60;100190.00;;;;2078048;28;20248;-49
2022/04/02 03:27:08;;;;;;;2.00;1.30;;;;;20.60;100187.00;;;;2078739;28;20597;-49
2022/04/02 03:28:08;;;;;;;1.13;1.03;;;;;20.60;100189.00;;;;2079381;28;20280;-49
2022/04/02 03:29:08;;;;;;;1.40;1.20;;;;;20.60;100193.00;;;;2076768;28;20262;-49
2022/04/02 03:30:09;;;;;;;1.40;1.30;;;;;20.60;100190.00;;;;2070907;28;20365;-49
2022/04/02 03:31:10;;;;;;;1.48;1.08;;;;;20.60;100201.00;;;;2075042;28;20236;-49
2022/04/02 03:32:10;;;;;;;2.30;1.30;;;;;20.60;100191.00;;;;2071166;28;20230;-49
2022/04/02 03:33:10;;;;;;;1.57;1.30;;;;;20.60;100207.00;;;;2071154;28;20223;-49
2022/04/02 03:34:11;;;;;;;2.67;1.30;;;;;20.60;100191.00;;;;2070768;28;20710;-49
2022/04/02 03:35:14;;;;;;;1.30;1.20;;;;;20.50;100193.00;;;;2070889;28;20233;-49
2022/04/02 03:36:14;;;;;;;1.92;1.38;;;;;20.50;100195.00;;;;2070239;28;20218;-50
2022/04/02 03:37:14;;;;;;;2.60;1.20;;;;;20.60;100196.00;;;;2070789;28;20676;-50
2022/04/02 03:38:15;;;;;;;1.80;1.40;;;;;20.60;100199.00;;;;2071150;28;20619;-50
2022/04/02 03:39:15;;;;;;;1.63;1.23;;;;;20.50;100192.00;;;;2071135;28;20628;-49
2022/04/02 03:40:17;;;;;;;2.37;1.03;;;;;20.60;100198.00;;;;2071158;28;20219;-50
2022/04/02 03:41:18;;;;;;;4.50;1.25;;;;;20.60;100200.00;;;;2070818;28;20819;-49
2022/04/02 03:42:18;;;;;;;2.10;1.13;;;;;20.50;100202.00;;;;2070945;28;20218;-50
2022/04/02 03:43:21;;;;;;;1.83;1.20;;;;;20.50;100197.00;;;;2079084;28;20248;-50
2022/04/02 03:44:21;;;;;;;1.23;1.10;;;;;20.50;100193.00;;;;2078973;28;20456;-49
2022/04/02 03:45:22;;;;;;;1.77;1.10;;;;;20.50;100201.00;;;;2078690;28;20693;-50
2022/04/02 03:47:41;;;;;;;1.50;1.15;;;;;20.50;100201.00;;;;2078842;28;20205;-50
2022/04/02 03:48:42;;;;;;;1.00;0.83;;;;;20.50;100198.00;;;;2078991;28;20209;-50
2022/04/02 03:49:44;;;;;;;2.03;1.30;;;;;20.50;100208.00;;;;2078496;28;20665;-50
2022/04/02 03:50:44;;;;;;;1.65;1.30;;;;;20.50;100197.00;;;;2078516;28;20225;-49
2022/04/02 03:51:45;;;;;;;2.10;1.17;;;;;20.50;100203.00;;;;2079003;28;20685;-49
2022/04/02 03:52:45;;;;;;;1.60;1.13;;;;;20.50;100206.00;;;;2079008;28;20688;-49
2022/04/02 03:53:46;;;;;;;2.87;1.47;;;;;20.50;100208.00;;;;2079091;28;20213;-49
2022/04/02 03:54:46;;;;;;;1.88;1.33;;;;;20.50;100201.00;;;;2073082;28;20209;-49
2022/04/02 03:55:48;;;;;;;1.57;1.30;;;;;20.50;100209.00;;;;2070647;28;20221;-49
2022/04/02 03:56:48;;;;;;;1.30;0.90;;;;;20.50;100216.00;;;;2070764;28;20214;-49
2022/04/02 03:57:49;;;;;;;1.63;0.93;;;;;20.50;100207.00;;;;2070842;28;20206;-50
2022/04/02 03:58:50;;;;;;;1.95;1.30;;;;;20.50;100210.00;;;;2070111;28;20214;-49
2022/04/02 03:59:50;;;;;;;1.43;1.07;;;;;20.50;100211.00;;;;2070382;28;20234;-49
2022/04/02 04:00:52;;;;;;;1.93;1.13;;;;;20.50;100212.00;;;;2071010;28;20586;-49
2022/04/02 04:01:53;;;;;;;1.60;1.30;;;;;20.50;100211.00;;;;2070760;28;20210;-49
2022/04/02 04:02:53;;;;;;;1.57;1.00;;;;;20.50;100213.00;;;;2070819;28;20206;-49
2022/04/02 04:03:53;;;;;;;1.47;1.10;;;;;20.50;100213.00;;;;2070812;28;20265;-49
2022/04/02 04:04:54;;;;;;;1.90;1.00;;;;;20.50;100211.00;;;;2070510;28;20280;-49
2022/04/02 04:05:54;;;;;;;2.43;1.40;;;;;20.40;100206.00;;;;2070395;28;20206;-49
2022/04/02 04:06:56;;;;;;;2.13;1.30;;;;;20.40;100211.00;;;;2070839;28;20219;-49
2022/04/02 04:07:56;;;;;;;1.58;1.02;;;;;20.50;100217.00;;;;2071069;28;20305;-49
2022/04/02 04:08:58;;;;;;;1.50;1.20;;;;;20.50;100213.00;;;;2069705;28;20679;-49
2022/04/02 04:09:58;;;;;;;2.17;1.20;;;;;20.40;100210.00;;;;2070915;28;20236;-49
2022/04/02 04:10:59;;;;;;;1.60;1.20;;;;;20.50;100224.00;;;;2070883;28;20218;-49
2022/04/02 04:11:59;;;;;;;1.77;1.30;;;;;20.50;100216.00;;;;2070912;28;20210;-49
2022/04/02 04:12:59;;;;;;;1.93;1.20;;;;;20.50;100221.00;;;;2070469;28;20252;-49
2022/04/02 04:14:00;;;;;;;1.57;1.33;;;;;20.40;100221.00;;;;2070869;28;20210;-49
2022/04/02 04:15:00;;;;;;;1.77;1.00;;;;;20.50;100227.00;;;;2070804;28;20257;-49
2022/04/02 04:16:01;;;;;;;1.80;1.30;;;;;20.40;100233.00;;;;2070101;28;20214;-49
2022/04/02 04:17:01;;;;;;;1.80;1.27;;;;;20.40;100227.00;;;;2070658;28;20222;-49
2022/04/02 04:18:02;;;;;;;1.47;1.00;;;;;20.40;100233.00;;;;2070938;28;20253;-49
2022/04/02 04:19:02;;;;;;;1.27;1.17;;;;;20.40;100236.00;;;;2070852;28;20730;-49
2022/04/02 04:20:03;;;;;;;2.07;1.20;;;;;20.40;100230.00;;;;2070432;28;20244;-48
2022/04/02 04:21:03;;;;;;;1.33;1.00;;;;;20.40;100235.00;;;;2070886;28;20222;-49
2022/04/02 04:22:06;;;;;;;1.63;1.23;;;;;20.40;100229.00;;;;2070850;28;20464;-49
2022/04/02 04:23:07;;;;;;;1.38;1.10;;;;;20.40;100229.00;;;;2069803;28;20297;-49
2022/04/02 04:24:08;;;;;;;2.45;1.08;;;;;20.40;100235.00;;;;2073408;28;20213;-49
2022/04/02 04:25:10;;;;;;;1.50;0.83;;;;;20.40;100238.00;;;;2078706;28;20229;-49
2022/04/02 04:26:11;;;;;;;3.28;1.20;;;;;20.40;100241.00;;;;2077955;28;20217;-50
2022/04/02 04:27:11;;;;;;;1.38;1.00;;;;;20.40;100235.00;;;;2076370;28;20611;-50
2022/04/02 04:28:12;;;;;;;1.50;1.17;;;;;20.40;100237.00;;;;2070708;28;20226;-50
2022/04/02 04:29:12;;;;;;;1.27;0.83;;;;;20.40;100240.00;;;;2070919;28;20212;-49
2022/04/02 04:30:13;;;;;;;1.60;1.10;;;;;20.40;100238.00;;;;2070956;28;20214;-49
2022/04/02 04:31:17;;;;;;;1.67;1.27;;;;;20.40;100235.00;;;;2070412;28;20246;-49
2022/04/02 04:32:18;;;;;;;1.30;1.08;;;;;20.40;100238.00;;;;2070576;28;20265;-49
2022/04/02 04:33:18;;;;;;;1.70;1.00;;;;;20.40;100243.00;;;;2070751;28;20253;-49
2022/04/02 04:34:19;;;;;;;1.57;1.10;;;;;20.40;100244.00;;;;2070606;28;20233;-49
2022/04/02 04:35:19;;;;;;;1.20;1.10;;;;;20.40;100240.00;;;;2072952;28;20218;-49
2022/04/02 04:36:19;;;;;;;1.50;1.00;;;;;20.40;100234.00;;;;2078470;28;20227;-49
2022/04/02 04:37:20;;;;;;;2.00;1.00;;;;;20.30;100238.00;;;;2078602;28;20245;-49
2022/04/02 04:38:20;;;;;;;1.50;1.20;;;;;20.40;100242.00;;;;2078584;28;20205;-49
2022/04/02 04:39:21;;;;;;;1.40;1.13;;;;;20.30;100242.00;;;;2078992;28;20320;-49
2022/04/02 04:40:22;;;;;;;1.40;1.10;;;;;20.30;100237.00;;;;2078966;28;20236;-49
2022/04/02 04:41:22;;;;;;;1.77;1.10;;;;;20.30;100253.00;;;;2078257;28;20209;-49
2022/04/02 04:42:22;;;;;;;1.63;1.23;;;;;20.30;100241.00;;;;2077973;28;20217;-49
2022/04/02 04:43:23;;;;;;;1.30;1.20;;;;;20.30;100254.00;;;;2078880;28;20209;-49
2022/04/02 04:44:23;;;;;;;1.70;1.23;;;;;20.30;100254.00;;;;2078701;28;20229;-49
2022/04/02 04:45:24;;;;;;;1.30;0.80;;;;;20.40;100254.00;;;;2074102;28;20702;-49
2022/04/02 04:46:24;;;;;;;1.30;1.03;;;;;20.40;100262.00;;;;2070719;28;20691;-49
2022/04/02 04:47:24;;;;;;;1.30;0.90;;;;;20.30;100253.00;;;;2070230;28;20985;-49
2022/04/02 04:48:25;;;;;;;1.93;1.00;;;;;20.30;100257.00;;;;2070414;28;20237;-49
2022/04/02 04:49:25;;;;;;;1.70;1.40;;;;;20.30;100253.00;;;;2070437;28;20214;-49
2022/04/02 04:50:26;;;;;;;1.77;1.07;;;;;20.30;100251.00;;;;2070769;28;20296;-48
2022/04/02 04:51:27;;;;;;;1.27;1.17;;;;;20.30;100254.00;;;;2070740;28;20205;-49
2022/04/02 04:52:27;;;;;;;1.03;0.90;;;;;20.30;100250.00;;;;2070512;28;20285;-49
2022/04/02 04:53:28;;;;;;;1.93;1.10;;;;;20.30;100264.00;;;;2070392;28;20198;-49
2022/04/02 04:54:28;;;;;;;1.43;0.90;;;;;20.30;100267.00;;;;2070521;28;20951;-49
2022/04/02 04:55:29;;;;;;;1.20;1.00;;;;;20.30;100269.00;;;;2069178;28;20229;-49
2022/04/02 04:56:29;;;;;;;1.23;0.87;;;;;20.30;100263.00;;;;2070418;28;20214;-49
2022/04/02 04:57:30;;;;;;;3.13;1.17;;;;;20.30;100261.00;;;;2069906;28;20207;-48
2022/04/02 04:58:30;;;;;;;2.50;1.00;;;;;20.30;100269.00;;;;2075270;28;20736;-49
2022/04/02 04:59:31;;;;;;;1.87;1.20;;;;;20.30;100259.00;;;;2078638;28;20230;-49
2022/04/02 05:00:31;;;;;;;1.20;0.90;;;;;20.30;100268.00;;;;2078782;28;20275;-49
2022/04/02 05:01:32;;;;;;;1.60;1.13;;;;;20.30;100278.00;;;;2078692;28;20209;-49
2022/04/02 05:02:32;;;;;;;1.00;0.90;;;;;20.30;100269.00;;;;2078391;28;20262;-49
2022/04/02 05:03:32;;;;;;;1.43;1.33;;;;;20.30;100264.00;;;;2078410;28;20206;-49
2022/04/02 05:04:33;;;;;;;1.03;0.90;;;;;20.30;100272.00;;;;2077043;28;20214;-49
2022/04/02 05:05:33;;;;;;;1.70;0.90;;;;;20.30;100269.00;;;;2077183;28;20244;-49